Tyler Pounds Regional Airport Tyler US
ICAO: KTYR
IATA: TYR
Category: Medium
Scheduled Services: Yes

Elevation: 544 ft
TransAlt. 18000 ft.

Airport Communications:
LONGVIEW APP/DEP:128.75
ATIS:126.25
CTAF:120.1
GND:121.9
FORT WORTH RDO:122.3
TWR:120.1
UNICOM:122.95

KTYR Zoom In..

If you have problems with the map follow the link
https://www.worldairports.se/pages/airport.php?
ICAO=KTYR

Runways:

(A) RW 04 length 7802 ft width 150 ft
---- / hdg 42

(B) RW 13 length 5200 ft width 150 ft
ILS 109.90 / hdg 132

(C) RW 17 length 4832 ft width 150 ft
---- / hdg 177

(D) RW 22 length 7802 ft width 150 ft
---- / hdg 222

(E) RW 31 length 5200 ft width 150 ft
---- / hdg 312

(F) RW 35 length 4832 ft width 150 ft
---- / hdg 357

Location; KTYR
Day. 16 / Time. 00.53 Zulu
* Altimeter: 29.78
* Temperature: 21° c. 69.8°f.
* Wind from: KTY° Speed R kn.
Dewpoint: 16° c.
Visibility: 10 Statute Miles.
Clouds: Overcast 4100 ft.

KTYR 160053Z 00000KT 10SM OVC041 21/16 A2978 RMK AO2 SLP080 T02110156


Wind From KTY°
Speed R kn.

 
 
jpsmedia worldairports.se 2019   terms of use